createdAt,value
2018-03-27T00:01:23.100Z,101555.05
2018-03-27T00:04:26.448Z,101560.33
2018-03-27T00:07:29.763Z,101552.44
2018-03-27T00:10:33.100Z,101547.12
2018-03-27T00:13:36.420Z,101546.17
2018-03-27T00:16:39.746Z,101540.72
2018-03-27T00:19:43.067Z,101544.17
2018-03-27T00:22:46.395Z,101541.81
2018-03-27T00:25:49.747Z,101538.46
2018-03-27T00:29:10.499Z,101543.19
2018-03-27T00:32:31.285Z,101541.67
2018-03-27T00:35:52.178Z,101540.76
2018-03-27T00:39:12.972Z,101542.69
2018-03-27T00:45:56.531Z,101541.91
2018-03-27T00:48:59.848Z,101543.80
2018-03-27T00:52:03.189Z,101544.49
2018-03-27T00:55:06.521Z,101546.95
2018-03-27T00:58:09.847Z,101550.98
2018-03-27T01:01:13.186Z,101546.80
2018-03-27T01:04:17.291Z,101549.91
2018-03-27T01:07:20.623Z,101549.81
2018-03-27T01:10:23.959Z,101547.38
2018-03-27T01:13:27.307Z,101549.02
2018-03-27T01:16:30.656Z,101542.98
2018-03-27T01:19:33.970Z,101549.42
2018-03-27T01:22:37.329Z,101545.81
2018-03-27T01:25:40.669Z,101539.25
2018-03-27T01:28:44.007Z,101539.88
2018-03-27T01:31:47.344Z,101537.77
2018-03-27T01:34:50.670Z,101534.46
2018-03-27T01:37:54.011Z,101535.64
2018-03-27T01:40:57.339Z,101529.31
2018-03-27T01:44:00.655Z,101535.98
2018-03-27T01:47:03.993Z,101529.80
2018-03-27T01:50:07.487Z,101533.50
2018-03-27T01:53:10.814Z,101531.56
2018-03-27T01:56:14.140Z,101540.38
2018-03-27T01:59:17.455Z,101534.78
2018-03-27T02:02:20.804Z,101527.58
2018-03-27T02:05:24.124Z,101519.74
2018-03-27T02:08:27.495Z,101526.89
2018-03-27T02:11:36.272Z,101523.14
2018-03-27T02:14:45.093Z,101524.11
2018-03-27T02:17:53.823Z,101520.67
2018-03-27T02:21:02.599Z,101525.61
2018-03-27T02:24:11.319Z,101516.97
2018-03-27T02:27:14.642Z,101515.69
2018-03-27T02:30:17.976Z,101515.03
2018-03-27T02:33:23.217Z,101516.68
2018-03-27T02:36:26.547Z,101513.57
2018-03-27T02:39:29.882Z,101511.53
2018-03-27T02:42:33.228Z,101506.16
2018-03-27T02:45:36.553Z,101508.75
2018-03-27T02:48:39.927Z,101497.13
2018-03-27T02:51:43.253Z,101500.14
2018-03-27T02:54:46.594Z,101505.22
2018-03-27T02:57:49.957Z,101505.22
2018-03-27T03:00:53.289Z,101499.31
2018-03-27T03:03:56.637Z,101499.58
2018-03-27T03:06:59.988Z,101503.45
2018-03-27T03:10:03.334Z,101511.94
2018-03-27T03:13:06.679Z,101508.77
2018-03-27T03:16:10.027Z,101505.45
2018-03-27T03:19:13.357Z,101512.86
2018-03-27T03:22:16.688Z,101505.28
2018-03-27T03:25:20.034Z,101509.25
2018-03-27T03:28:23.397Z,101516.14
2018-03-27T03:31:26.751Z,101503.48
2018-03-27T03:34:30.078Z,101500.11
2018-03-27T03:37:33.440Z,101507.75
2018-03-27T03:40:36.999Z,101500.53
2018-03-27T03:43:40.373Z,101495.36
2018-03-27T03:46:43.687Z,101491.29
2018-03-27T03:49:47.028Z,101486.18
2018-03-27T03:52:50.355Z,101490.89
2018-03-27T03:55:53.699Z,101487.52
2018-03-27T03:58:57.032Z,101490.11
2018-03-27T04:02:00.373Z,101482.73
2018-03-27T04:05:03.708Z,101486.60
2018-03-27T04:08:07.039Z,101486.11
2018-03-27T04:11:10.342Z,101484.02
2018-03-27T04:14:14.454Z,101481.58
2018-03-27T04:17:17.788Z,101477.72
2018-03-27T04:20:21.119Z,101479.55
2018-03-27T04:23:24.467Z,101480.90
2018-03-27T04:26:27.803Z,101473.19
2018-03-27T04:29:31.870Z,101474.86
2018-03-27T04:32:35.214Z,101473.58
2018-03-27T04:35:38.532Z,101463.09
2018-03-27T04:38:41.872Z,101465.52
2018-03-27T04:41:45.180Z,101460.34
2018-03-27T04:44:48.519Z,101463.61
2018-03-27T04:47:52.598Z,101466.96
2018-03-27T04:50:55.931Z,101461.42
2018-03-27T04:53:59.272Z,101462.95
2018-03-27T04:57:02.599Z,101460.66
2018-03-27T05:00:05.944Z,101465.29
2018-03-27T05:03:10.020Z,101464.08
2018-03-27T05:06:13.357Z,101467.42
2018-03-27T05:09:16.709Z,101467.20
2018-03-27T05:12:20.840Z,101469.30
2018-03-27T05:15:24.173Z,101462.31
2018-03-27T05:18:27.518Z,101459.66
2018-03-27T05:21:30.846Z,101463.95
2018-03-27T05:24:34.151Z,101464.17
2018-03-27T05:27:37.480Z,101449.72
2018-03-27T05:30:40.807Z,101456.96
2018-03-27T05:33:44.143Z,101453.19
2018-03-27T05:36:47.472Z,101454.86
2018-03-27T05:39:50.811Z,101452.80
2018-03-27T05:42:54.122Z,101453.87
2018-03-27T05:45:57.456Z,101448.85
2018-03-27T05:49:00.761Z,101445.14
2018-03-27T05:52:04.095Z,101457.83
2018-03-27T05:55:07.422Z,101455.99
2018-03-27T05:58:10.752Z,101459.08
2018-03-27T06:01:14.091Z,101464.72
2018-03-27T06:04:18.183Z,101457.08
2018-03-27T06:07:21.490Z,101462.69
2018-03-27T06:10:25.591Z,101459.58
2018-03-27T06:13:28.907Z,101458.89
2018-03-27T06:16:32.993Z,101457.22
2018-03-27T06:19:36.331Z,101456.28
2018-03-27T06:22:39.643Z,101453.07
2018-03-27T06:25:42.979Z,101451.50
2018-03-27T06:28:46.302Z,101447.79
2018-03-27T06:31:49.635Z,101458.97
2018-03-27T06:34:52.974Z,101459.46
2018-03-27T06:37:56.297Z,101455.95
2018-03-27T06:41:00.391Z,101457.63
2018-03-27T06:44:03.708Z,101458.02
2018-03-27T06:47:07.040Z,101452.67
2018-03-27T06:50:10.341Z,101455.72
2018-03-27T06:53:13.683Z,101452.44
2018-03-27T06:56:17.008Z,101448.17
2018-03-27T06:59:20.355Z,101447.08
2018-03-27T07:02:23.674Z,101451.37
2018-03-27T07:05:27.059Z,101451.86
2018-03-27T07:08:30.347Z,101453.72
2018-03-27T07:11:33.681Z,101448.02
2018-03-27T07:14:37.795Z,101450.04
2018-03-27T07:17:41.971Z,101451.64
2018-03-27T07:20:45.296Z,101450.37
2018-03-27T07:23:48.637Z,101453.31
2018-03-27T07:26:51.994Z,101452.30
2018-03-27T07:29:55.336Z,101451.80
2018-03-27T07:32:58.642Z,101454.65
2018-03-27T07:36:01.987Z,101460.48
2018-03-27T07:39:06.202Z,101462.31
2018-03-27T07:42:09.527Z,101455.17
2018-03-27T07:45:13.803Z,101453.47
2018-03-27T07:48:17.106Z,101450.95
2018-03-27T07:51:20.456Z,101451.31
2018-03-27T07:54:23.750Z,101455.92
2018-03-27T07:57:27.071Z,101455.84
2018-03-27T08:00:31.138Z,101453.42
2018-03-27T08:03:34.452Z,101461.64
2018-03-27T08:06:37.786Z,101460.83
2018-03-27T08:09:41.103Z,101460.41
2018-03-27T08:12:44.427Z,101454.00
2018-03-27T08:15:48.494Z,101464.59
2018-03-27T08:18:51.839Z,101465.09
2018-03-27T08:21:55.138Z,101462.16
2018-03-27T08:24:58.466Z,101455.45
2018-03-27T08:28:01.763Z,101458.13
2018-03-27T08:31:05.094Z,101443.91
2018-03-27T08:34:08.424Z,101436.59
2018-03-27T08:37:11.743Z,101442.20
2018-03-27T08:40:15.052Z,101433.77
2018-03-27T08:43:18.376Z,101427.22
2018-03-27T08:46:21.703Z,101415.75
2018-03-27T08:49:25.762Z,101418.25
2018-03-27T08:52:29.078Z,101418.90
2018-03-27T08:55:32.382Z,101417.45
2018-03-27T08:58:35.699Z,101408.85
2018-03-27T09:01:39.767Z,101414.64
2018-03-27T09:04:43.108Z,101407.34
2018-03-27T09:07:47.171Z,101408.62
2018-03-27T09:10:50.478Z,101407.23
2018-03-27T09:13:53.774Z,101403.29
2018-03-27T09:16:57.082Z,101406.23
2018-03-27T09:20:00.373Z,101410.41
2018-03-27T09:23:03.690Z,101407.80
2018-03-27T09:26:06.979Z,101401.73
2018-03-27T09:29:10.295Z,101402.48
2018-03-27T09:32:14.359Z,101391.58
2018-03-27T09:35:17.667Z,101405.12
2018-03-27T09:38:20.971Z,101392.61
2018-03-27T09:41:24.299Z,101398.03
2018-03-27T09:44:28.356Z,101387.16
2018-03-27T09:47:31.667Z,101389.06
2018-03-27T09:50:34.995Z,101384.38
2018-03-27T09:53:38.300Z,101376.68
2018-03-27T09:56:42.379Z,101377.33
2018-03-27T09:59:45.684Z,101371.27
2018-03-27T10:02:48.999Z,101373.16
2018-03-27T10:05:52.303Z,101370.45
2018-03-27T10:08:56.395Z,101361.24
2018-03-27T10:11:59.719Z,101366.75
2018-03-27T10:15:03.803Z,101366.84
2018-03-27T10:18:07.122Z,101371.89
2018-03-27T10:21:11.200Z,101376.72
2018-03-27T10:24:14.520Z,101374.52
2018-03-27T10:27:17.816Z,101368.78
2018-03-27T10:30:21.127Z,101369.56
2018-03-27T10:33:25.203Z,101374.61
2018-03-27T10:36:28.514Z,101369.75
2018-03-27T10:39:31.826Z,101373.34
2018-03-27T10:42:35.126Z,101369.72
2018-03-27T10:45:38.443Z,101366.77
2018-03-27T10:48:42.507Z,101362.48
2018-03-27T10:51:45.822Z,101374.44
2018-03-27T10:54:49.114Z,101366.88
2018-03-27T10:57:52.455Z,101362.88
2018-03-27T11:00:55.758Z,101360.52
2018-03-27T11:03:59.096Z,101354.92
2018-03-27T11:07:02.379Z,101360.88
2018-03-27T11:10:05.752Z,101355.16
2018-03-27T11:13:09.359Z,101351.61
2018-03-27T11:16:12.654Z,101344.28
2018-03-27T11:19:15.974Z,101339.06
2018-03-27T11:22:19.272Z,101344.41
2018-03-27T11:25:22.587Z,101339.80
2018-03-27T11:28:25.894Z,101329.09
2018-03-27T11:31:29.219Z,101328.79
2018-03-27T11:34:32.523Z,101334.31
2018-03-27T11:37:35.839Z,101326.30
2018-03-27T11:40:39.146Z,101317.81
2018-03-27T11:43:42.460Z,101315.34
2018-03-27T11:46:45.763Z,101318.45
2018-03-27T11:49:49.075Z,101310.98
2018-03-27T11:52:53.154Z,101311.77
2018-03-27T11:55:56.474Z,101307.88
2018-03-27T11:58:59.790Z,101298.27
2018-03-27T12:02:03.846Z,101297.98
2018-03-27T12:05:07.159Z,101294.55
2018-03-27T12:08:10.469Z,101288.11
2018-03-27T12:11:13.786Z,101276.94
2018-03-27T12:14:17.866Z,101271.33
2018-03-27T12:17:21.165Z,101265.39
2018-03-27T12:20:24.491Z,101264.69
2018-03-27T12:23:28.567Z,101258.16
2018-03-27T12:26:31.893Z,101254.34
2018-03-27T12:29:35.189Z,101241.55
2018-03-27T12:32:38.503Z,101241.88
2018-03-27T12:35:42.586Z,101240.88
2018-03-27T12:38:45.900Z,101236.97
2018-03-27T12:41:49.202Z,101231.39
2018-03-27T12:44:53.285Z,101229.25
2018-03-27T12:47:56.599Z,101234.58
2018-03-27T12:50:59.939Z,101225.94
2018-03-27T12:54:03.248Z,101225.41
2018-03-27T12:57:06.567Z,101226.54
2018-03-27T13:00:09.874Z,101220.03
2018-03-27T13:03:13.193Z,101216.37
2018-03-27T13:06:17.278Z,101226.28
2018-03-27T13:09:20.590Z,101219.19
2018-03-27T13:12:23.903Z,101219.80
2018-03-27T13:15:27.227Z,101224.78
2018-03-27T13:18:30.531Z,101218.17
2018-03-27T13:21:33.847Z,101214.52
2018-03-27T13:24:37.168Z,101216.72
2018-03-27T13:27:40.467Z,101211.80
2018-03-27T13:30:43.782Z,101206.72
2018-03-27T13:33:47.850Z,101200.89
2018-03-27T13:36:51.167Z,101199.95
2018-03-27T13:39:54.471Z,101200.47
2018-03-27T13:42:57.787Z,101197.03
2018-03-27T13:46:01.898Z,101197.31
2018-03-27T13:49:05.215Z,101196.33
2018-03-27T13:52:08.520Z,101191.82
2018-03-27T13:55:11.839Z,101192.43
2018-03-27T13:58:15.159Z,101193.02
2018-03-27T14:01:18.490Z,101192.63
2018-03-27T14:04:22.567Z,101184.84
2018-03-27T14:07:25.882Z,101185.47
2018-03-27T14:10:29.188Z,101188.75
2018-03-27T14:13:32.502Z,101187.80
2018-03-27T14:16:36.595Z,101188.91
2018-03-27T14:19:39.894Z,101183.70
2018-03-27T14:22:43.215Z,101177.20
2018-03-27T14:25:46.531Z,101174.98
2018-03-27T14:28:49.848Z,101176.67
2018-03-27T14:31:53.155Z,101167.03
2018-03-27T14:34:56.486Z,101169.02
2018-03-27T14:38:00.555Z,101168.87
2018-03-27T14:41:03.868Z,101167.04
2018-03-27T14:44:07.192Z,101163.66
2018-03-27T14:47:11.258Z,101158.95
2018-03-27T14:50:14.579Z,101153.91
2018-03-27T14:53:17.913Z,101153.14
2018-03-27T14:56:21.238Z,101153.53
2018-03-27T14:59:24.552Z,101156.52
2018-03-27T15:02:27.882Z,101152.59
2018-03-27T15:05:31.207Z,101152.39
2018-03-27T15:08:34.506Z,101147.34
2018-03-27T15:11:37.846Z,101149.09
2018-03-27T15:14:41.154Z,101147.93
2018-03-27T15:17:44.486Z,101137.27
2018-03-27T15:20:47.819Z,101138.73
2018-03-27T15:23:51.139Z,101132.83
2018-03-27T15:26:54.486Z,101127.83
2018-03-27T15:29:57.803Z,101125.20
2018-03-27T15:33:01.127Z,101120.00
2018-03-27T15:36:04.461Z,101114.36
2018-03-27T15:39:08.536Z,101115.48
2018-03-27T15:42:11.855Z,101110.20
2018-03-27T15:45:15.947Z,101108.59
2018-03-27T15:48:19.287Z,101104.80
2018-03-27T15:51:23.363Z,101103.38
2018-03-27T15:54:26.685Z,101098.78
2018-03-27T15:57:30.770Z,101100.75
2018-03-27T16:00:34.067Z,101095.16
2018-03-27T16:03:37.395Z,101092.14
2018-03-27T16:06:41.470Z,101087.28
2018-03-27T16:09:44.788Z,101085.95
2018-03-27T16:12:48.111Z,101089.77
2018-03-27T16:15:52.189Z,101084.13
2018-03-27T16:18:55.511Z,101083.88
2018-03-27T16:21:59.602Z,101077.70
2018-03-27T16:25:02.927Z,101079.85
2018-03-27T16:28:07.011Z,101080.46
2018-03-27T16:31:10.324Z,101076.07
2018-03-27T16:34:13.701Z,101067.78
2018-03-27T16:37:16.971Z,101071.35
2018-03-27T16:40:20.312Z,101074.73
2018-03-27T16:43:23.695Z,101073.87
2018-03-27T16:46:27.002Z,101075.95
2018-03-27T16:49:30.330Z,101072.84
2018-03-27T16:52:34.459Z,101068.48
2018-03-27T16:55:37.792Z,101069.04
2018-03-27T16:58:41.110Z,101068.20
2018-03-27T17:01:44.436Z,101062.37
2018-03-27T17:04:47.755Z,101060.97
2018-03-27T17:07:51.055Z,101057.05
2018-03-27T17:10:54.366Z,101060.20
2018-03-27T17:13:57.671Z,101055.11
2018-03-27T17:17:01.020Z,101066.25
2018-03-27T17:20:04.326Z,101068.29
2018-03-27T17:23:07.654Z,101062.42
2018-03-27T17:26:10.950Z,101063.95
2018-03-27T17:29:14.267Z,101069.05
2018-03-27T17:32:17.577Z,101064.64
2018-03-27T17:35:20.958Z,101071.48
2018-03-27T17:38:24.308Z,101074.01
2018-03-27T17:41:27.644Z,101065.87
2018-03-27T17:44:30.983Z,101068.38
2018-03-27T17:47:35.937Z,101076.69
2018-03-27T17:50:39.256Z,101076.02
2018-03-27T17:53:43.110Z,101072.30
2018-03-27T17:56:46.415Z,101066.84
2018-03-27T17:59:49.754Z,101071.98
2018-03-27T18:02:53.054Z,101079.77
2018-03-27T18:05:56.383Z,101073.95
2018-03-27T18:08:59.711Z,101075.54
2018-03-27T18:12:03.030Z,101072.36
2018-03-27T18:15:06.352Z,101072.73
2018-03-27T18:18:09.678Z,101073.03
2018-03-27T18:21:12.993Z,101066.91
2018-03-27T18:24:16.374Z,101067.33
2018-03-27T18:27:19.682Z,101072.11
2018-03-27T18:30:23.779Z,101070.34
2018-03-27T18:33:27.117Z,101077.00
2018-03-27T18:36:30.439Z,101075.30
2018-03-27T18:39:33.768Z,101080.37
2018-03-27T18:42:37.094Z,101070.45
2018-03-27T18:45:40.445Z,101061.02
2018-03-27T18:48:43.756Z,101056.24
2018-03-27T18:51:47.158Z,101056.38
2018-03-27T18:54:50.446Z,101064.09
2018-03-27T18:57:53.836Z,101059.27
2018-03-27T19:00:57.134Z,101057.36
2018-03-27T19:04:00.460Z,101053.69
2018-03-27T19:07:03.802Z,101055.88
2018-03-27T19:10:07.108Z,101053.20
2018-03-27T19:13:11.068Z,101054.30
2018-03-27T19:16:14.374Z,101051.19
2018-03-27T19:19:17.699Z,101053.63
2018-03-27T19:22:21.015Z,101051.55
2018-03-27T19:25:24.386Z,101049.63
2018-03-27T19:28:28.473Z,101044.50
2018-03-27T19:31:32.561Z,101046.45
2018-03-27T19:34:35.951Z,101047.74
2018-03-27T19:37:39.287Z,101045.59
2018-03-27T19:40:44.008Z,101047.44
2018-03-27T19:43:47.349Z,101053.50
2018-03-27T19:46:50.725Z,101048.83
2018-03-27T19:49:54.027Z,101046.68
2018-03-27T19:52:57.354Z,101048.45
2018-03-27T19:56:00.658Z,101043.39
2018-03-27T19:59:04.046Z,101044.23
2018-03-27T20:02:07.323Z,101039.54
2018-03-27T20:05:10.651Z,101041.67
2018-03-27T20:08:13.976Z,101038.17
2018-03-27T20:11:18.122Z,101035.23
2018-03-27T20:14:21.447Z,101028.25
2018-03-27T20:17:24.758Z,101034.42
2018-03-27T20:20:28.141Z,101029.37
2018-03-27T20:23:31.457Z,101030.26
2018-03-27T20:26:34.789Z,101025.05
2018-03-27T20:29:38.101Z,101024.33
2018-03-27T20:32:41.434Z,101022.66
2018-03-27T20:35:44.746Z,101028.11
2018-03-27T20:38:48.151Z,101015.70
2018-03-27T20:41:51.480Z,101016.97
2018-03-27T20:44:54.815Z,101017.21
2018-03-27T20:47:58.143Z,101015.88
2018-03-27T20:51:01.531Z,101014.36
2018-03-27T20:54:04.864Z,101014.64
2018-03-27T20:57:08.199Z,101015.80
2018-03-27T21:00:11.532Z,101008.52
2018-03-27T21:03:14.855Z,101004.42
2018-03-27T21:06:18.182Z,101003.33
2018-03-27T21:09:21.512Z,101006.75
2018-03-27T21:12:24.859Z,101007.05
2018-03-27T21:15:28.174Z,101004.04
2018-03-27T21:18:31.499Z,101012.14
2018-03-27T21:21:34.833Z,101007.30
2018-03-27T21:24:38.147Z,100998.06
2018-03-27T21:27:41.478Z,101002.42
2018-03-27T21:30:44.815Z,101000.02
2018-03-27T21:33:48.159Z,101008.83
2018-03-27T21:36:51.467Z,101008.09
2018-03-27T21:39:54.802Z,101006.45
2018-03-27T21:42:58.118Z,101009.75
2018-03-27T21:46:01.454Z,101007.16
2018-03-27T21:49:04.764Z,100998.14
2018-03-27T21:52:08.103Z,101012.68
2018-03-27T21:55:11.418Z,101001.58
2018-03-27T21:58:14.749Z,100987.47
2018-03-27T22:01:18.054Z,100989.97
2018-03-27T22:04:21.387Z,100976.75
2018-03-27T22:07:25.481Z,100980.57
2018-03-27T22:10:28.790Z,100979.61
2018-03-27T22:13:32.121Z,100964.77
2018-03-27T22:16:35.457Z,100966.70
2018-03-27T22:19:38.791Z,100963.03
2018-03-27T22:22:42.116Z,100960.09
2018-03-27T22:25:45.460Z,100957.69
2018-03-27T22:28:48.785Z,100957.94
2018-03-27T22:31:52.123Z,100947.80
2018-03-27T22:34:55.455Z,100946.38
2018-03-27T22:37:58.795Z,100941.00
2018-03-27T22:41:02.099Z,100942.70
2018-03-27T22:44:05.475Z,100942.84
2018-03-27T22:47:08.763Z,100938.63
2018-03-27T22:50:12.103Z,100934.39
2018-03-27T22:53:15.445Z,100940.61
2018-03-27T22:56:18.785Z,100927.71
2018-03-27T22:59:22.119Z,100925.70
2018-03-27T23:02:25.463Z,100918.06
2018-03-27T23:05:28.784Z,100919.51
2018-03-27T23:08:32.119Z,100919.19
2018-03-27T23:11:35.461Z,100914.73
2018-03-27T23:14:38.770Z,100913.64
2018-03-27T23:17:42.115Z,100916.01
2018-03-27T23:20:45.422Z,100914.98
2018-03-27T23:23:48.768Z,100908.63
2018-03-27T23:26:52.107Z,100910.07
2018-03-27T23:29:55.443Z,100910.25
2018-03-27T23:32:58.761Z,100905.55
2018-03-27T23:36:02.119Z,100906.39
2018-03-27T23:39:05.471Z,100906.22
2018-03-27T23:42:08.799Z,100904.73
2018-03-27T23:45:12.128Z,100899.18
2018-03-27T23:48:15.469Z,100895.44
2018-03-27T23:51:18.815Z,100892.92
2018-03-27T23:54:22.151Z,100882.86
2018-03-27T23:57:25.497Z,100883.95
